Latest Weather Observations for Lord Howe Island Windy Point

IDN60801

Issued at 4:52 pm EST Thursday 18 July 2019 (issued every 10 minutes, with the page automatically refreshed every 10 minutes)

About weather observations | Map of weather stations | Latest weather observations for NSW | Other Formats
Station Details ID: 200715 Name: LORD HOWE ISLAND WINDY POINT Lat: -31.54 Lon: 159.07 Height: 4.0 m
Data from the previous 72 hours. | See also: Recent months at Lord Howe Island Windy Point
Date/Time
EST
Temp
°C
App
Temp
°C
Dew
Point
°C
Rel
Hum
%
Delta-T
°C
Wind Press
QNH
hPa
Press
MSL
hPa
Rain since
9am
mm
Dir  Spd
km/h
Gust
km/h
Spd
kts
Gust
kts
18/04:30pm - - - - - SW 48 56 26 30 - - -
18/04:00pm - - - - - WSW 44 54 24 29 - - -
18/03:30pm - - - - - WSW 46 56 25 30 - - -
18/03:00pm - - - - - SW 50 59 27 32 - - -
18/02:30pm - - - - - SW 44 56 24 30 - - -
18/02:00pm - - - - - SW 44 54 24 29 - - -
18/01:30pm - - - - - WSW 46 54 25 29 - - -
18/01:00pm - - - - - WSW 46 56 25 30 - - -
18/12:30pm - - - - - WSW 46 54 25 29 - - -
18/12:00pm - - - - - WSW 44 54 24 29 - - -
18/11:30am - - - - - WSW 44 54 24 29 - - -
18/11:00am - - - - - SW 46 56 25 30 - - -
18/10:53am - - - - - SW 39 56 21 30 - - -
18/10:30am - - - - - WSW 30 39 16 21 - - -
18/10:00am - - - - - W 35 48 19 26 - - -
18/09:30am - - - - - W 32 39 17 21 - - -
18/09:10am - - - - - W 41 59 22 32 - - -
18/09:00am - - - - - W 46 56 25 30 - - -
18/08:44am - - - - - WSW 54 72 29 39 - - -
18/08:30am - - - - - WSW 54 65 29 35 - - -
18/08:19am - - - - - WNW 50 63 27 34 - - -
18/08:05am - - - - - NW 24 52 13 28 - - -
18/08:00am - - - - - NW 20 32 11 17 - - -
18/07:50am - - - - - NW 35 52 19 28 - - -
18/07:47am - - - - - WNW 37 52 20 28 - - -
18/07:30am - - - - - W 22 39 12 21 - - -
18/07:00am - - - - - WNW 30 43 16 23 - - -
18/06:30am - - - - - WNW 28 33 15 18 - - -
18/06:00am - - - - - WNW 24 33 13 18 - - -
18/05:30am - - - - - WNW 32 37 17 20 - - -
18/05:23am - - - - - WNW 35 44 19 24 - - -
18/05:00am - - - - - W 39 44 21 24 - - -
18/04:30am - - - - - W 37 43 20 23 - - -
18/04:00am - - - - - W 43 50 23 27 - - -
18/03:30am - - - - - W 41 50 22 27 - - -
18/03:00am - - - - - W 33 43 18 23 - - -
18/02:30am - - - - - WNW 32 41 17 22 - - -
18/02:00am - - - - - NW 26 33 14 18 - - -
18/01:30am - - - - - WNW 26 35 14 19 - - -
18/01:00am - - - - - W 30 35 16 19 - - -
18/12:30am - - - - - W 30 35 16 19 - - -
18/12:00am - - - - - W 26 30 14 16 - - -
 
Date/Time
EST
Temp
°C
App
Temp
°C
Dew
Point
°C
Rel
Hum
%
Delta-T
°C
Wind Press
QNH
hPa
Press
MSL
hPa
Rain since
9am
mm
Dir  Spd
km/h
Gust
km/h
Spd
kts
Gust
kts
17/11:30pm - - - - - W 28 32 15 17 - - -
17/11:00pm - - - - - W 28 32 15 17 - - -
17/10:30pm - - - - - W 28 32 15 17 - - -
17/10:00pm - - - - - W 24 28 13 15 - - -
17/09:30pm - - - - - W 28 32 15 17 - - -
17/09:00pm - - - - - W 22 26 12 14 - - -
17/08:30pm - - - - - W 20 24 11 13 - - -
17/08:00pm - - - - - WNW 19 24 10 13 - - -
17/07:30pm - - - - - WNW 22 32 12 17 - - -
17/07:00pm - - - - - WSW 20 24 11 13 - - -
17/06:30pm - - - - - SW 22 26 12 14 - - -
17/06:00pm - - - - - WSW 24 28 13 15 - - -
17/05:30pm - - - - - WSW 13 15 7 8 - - -
17/05:00pm - - - - - WSW 32 41 17 22 - - -
17/04:49pm - - - - - SW 32 46 17 25 - - -
17/04:30pm - - - - - SW 24 28 13 15 - - -
17/04:00pm - - - - - SW 28 32 15 17 - - -
17/03:30pm - - - - - SW 30 35 16 19 - - -
17/03:00pm - - - - - SW 30 35 16 19 - - -
17/02:30pm - - - - - SW 32 37 17 20 - - -
17/02:00pm - - - - - SW 33 39 18 21 - - -
17/01:30pm - - - - - SW 35 41 19 22 - - -
17/01:00pm - - - - - SW 39 44 21 24 - - -
17/12:30pm - - - - - SW 35 43 19 23 - - -
17/12:00pm - - - - - SW 33 50 18 27 - - -
17/11:51am - - - - - SW 32 50 17 27 - - -
17/11:30am - - - - - WSW 35 41 19 22 - - -
17/11:00am - - - - - SW 35 41 19 22 - - -
17/10:30am - - - - - WSW 33 41 18 22 - - -
17/10:00am - - - - - WSW 37 48 20 26 - - -
17/09:47am - - - - - WSW 33 41 18 22 - - -
17/09:30am - - - - - WSW 35 41 19 22 - - -
17/09:29am - - - - - WSW 35 41 19 22 - - -
17/09:00am - - - - - SW 37 43 20 23 - - -
17/08:30am - - - - - SW 35 44 19 24 - - -
17/08:00am - - - - - SW 37 43 20 23 - - -
17/07:30am - - - - - SW 37 48 20 26 - - -
17/07:00am - - - - - SW 43 50 23 27 - - -
17/06:30am - - - - - SW 39 46 21 25 - - -
17/06:00am - - - - - SW 43 52 23 28 - - -
17/05:30am - - - - - SW 35 43 19 23 - - -
17/05:21am - - - - - SW 43 61 23 33 - - -
17/05:00am - - - - - SW 44 52 24 28 - - -
17/04:30am - - - - - SW 46 54 25 29 - - -
17/04:00am - - - - - SW 44 56 24 30 - - -
17/03:30am - - - - - SW 46 56 25 30 - - -
17/03:00am - - - - - SSW 44 54 24 29 - - -
17/02:30am - - - - - SW 46 54 25 29 - - -
17/02:00am - - - - - SW 46 56 25 30 - - -
17/01:30am - - - - - WSW 46 57 25 31 - - -
17/01:00am - - - - - SW 46 57 25 31 - - -
17/12:30am - - - - - SW 44 54 24 29 - - -
17/12:00am - - - - - SW 46 54 25 29 - - -
 
Date/Time
EST
Temp
°C
App
Temp
°C
Dew
Point
°C
Rel
Hum
%
Delta-T
°C
Wind Press
QNH
hPa
Press
MSL
hPa
Rain since
9am
mm
Dir  Spd
km/h
Gust
km/h
Spd
kts
Gust
kts
16/11:30pm - - - - - SW 44 54 24 29 - - -
16/11:00pm - - - - - SW 43 50 23 27 - - -
16/10:30pm - - - - - SW 44 54 24 29 - - -
16/10:00pm - - - - - SW 44 52 24 28 - - -
16/09:30pm - - - - - SW 37 44 20 24 - - -
16/09:00pm - - - - - SW 43 54 23 29 - - -
16/08:30pm - - - - - SW 44 54 24 29 - - -
16/08:00pm - - - - - SW 41 50 22 27 - - -
16/07:30pm - - - - - SW 39 50 21 27 - - -
16/07:00pm - - - - - SW 46 56 25 30 - - -
16/06:30pm - - - - - SW 43 57 23 31 - - -
16/06:00pm - - - - - WSW 46 57 25 31 - - -
16/05:30pm - - - - - WSW 46 54 25 29 - - -
16/05:00pm - - - - - WSW 46 54 25 29 - - -
16/04:30pm - - - - - WSW 44 56 24 30 - - -
16/04:00pm - - - - - WSW 46 56 25 30 - - -
16/03:30pm - - - - - WSW 50 59 27 32 - - -
16/03:00pm - - - - - WSW 48 59 26 32 - - -
16/02:30pm - - - - - WSW 48 56 26 30 - - -
16/02:00pm - - - - - WSW 48 63 26 34 - - -
16/01:47pm - - - - - WSW 50 69 27 37 - - -
16/01:30pm - - - - - WSW 48 59 26 32 - - -
16/01:00pm - - - - - WSW 50 59 27 32 - - -
16/12:30pm - - - - - WSW 48 57 26 31 - - -
16/12:00pm - - - - - SW 48 59 26 32 - - -
16/11:30am - - - - - WSW 44 54 24 29 - - -
16/11:00am - - - - - SW 46 59 25 32 - - -
16/10:30am - - - - - WSW 43 52 23 28 - - -
16/10:00am - - - - - SW 43 50 23 27 - - -
16/09:30am - - - - - SW 43 50 23 27 - - -
16/09:00am - - - - - SW 44 56 24 30 - - -
16/08:30am - - - - - WSW 46 54 25 29 - - -
16/08:00am - - - - - SW 44 52 24 28 - - -
16/07:30am - - - - - SW 46 56 25 30 - - -
16/07:03am - - - - - WSW 43 61 23 33 - - -
16/07:00am - - - - - WSW 43 54 23 29 - - -
16/06:47am - - - - - SW 41 56 22 30 - - -
16/06:30am - - - - - SW 35 44 19 24 - - -
16/06:00am - - - - - SW 52 70 28 38 - - -
16/05:55am - - - - - SW 46 70 25 38 - - -
16/05:30am - - - - - SW 39 46 21 25 - - -
16/05:00am - - - - - SW 33 41 18 22 - - -
16/04:30am - - - - - SW 48 61 26 33 - - -
16/04:00am - - - - - SW 39 46 21 25 - - -
16/03:30am - - - - - SW 33 39 18 21 - - -
16/03:04am - - - - - SW 43 65 23 35 - - -
16/03:00am - - - - - SW 41 50 22 27 - - -
16/02:30am - - - - - SW 41 48 22 26 - - -
16/02:00am - - - - - SW 43 50 23 27 - - -
16/01:30am - - - - - SW 44 50 24 27 - - -
16/01:00am - - - - - SW 41 48 22 26 - - -
16/12:30am - - - - - WSW 48 63 26 34 - - -
16/12:00am - - - - - SW 44 56 24 30 - - -
 
Date/Time
EST
Temp
°C
App
Temp
°C
Dew
Point
°C
Rel
Hum
%
Delta-T
°C
Wind Press
QNH
hPa
Press
MSL
hPa
Rain since
9am
mm
Dir  Spd
km/h
Gust
km/h
Spd
kts
Gust
kts
15/11:30pm - - - - - SW 44 56 24 30 - - -
15/11:00pm - - - - - SW 48 63 26 34 - - -
15/10:30pm - - - - - SW 46 61 25 33 - - -
15/10:00pm - - - - - SW 52 59 28 32 - - -
15/09:30pm - - - - - SW 48 61 26 33 - - -
15/09:00pm - - - - - SW 50 63 27 34 - - -
15/08:30pm - - - - - SSW 48 59 26 32 - - -
15/08:00pm - - - - - SW 50 61 27 33 - - -
15/07:30pm - - - - - SSW 52 63 28 34 - - -
15/07:00pm - - - - - SSW 54 69 29 37 - - -
15/06:30pm - - - - - SSW 54 67 29 36 - - -
15/06:10pm - - - - - SW 54 72 29 39 - - -
15/06:00pm - - - - - SW 56 69 30 37 - - -
15/05:30pm - - - - - SSW 48 69 26 37 - - -
15/05:11pm - - - - - SW 48 67 26 36 - - -
15/05:00pm - - - - - SW 52 65 28 35 - - -

Other formats

Comma delimited format used in spreadsheet applications
http://www.bom.gov.au/fwo/IDN60801/IDN60801.95995.axf

JavaScript Object Notation format (JSON) in row-major order
http://www.bom.gov.au/fwo/IDN60801/IDN60801.95995.json

Data quality

Most of these data are generated automatically and are frequently updated. Quality checks on data are not normally performed. It is possible for incorrect values to appear. Refer to information at About Latest Weather Observations and please check the disclaimer before using these data.